Time;durP1;ratioP1;P1;durP2;ratioP2;P2;SDS_P1;SDS_P2;PMS_P1;PMS_P2;Temp;Humidity;BMP_temperature;BMP_pressure;BME280_temperature;BME280_humidity;BME280_pressure;Samples;Min_cycle;Max_cycle;Signal;HPM_P1;HPM_P2
2022/11/20 00:01:19;;;;;;;1.00;0.50;;;-1.40;85.50;;;;;;5861830;24;20431;-82
2022/11/20 00:03:46;;;;;;;1.60;0.70;;;-1.30;85.60;;;;;;5924477;24;20418;-81
2022/11/20 00:06:15;;;;;;;0.95;0.60;;;-1.40;85.60;;;;;;5955253;24;20008;-81
2022/11/20 00:08:41;;;;;;;0.95;0.65;;;-1.50;85.60;;;;;;5983676;23;20018;-81
2022/11/20 00:11:12;;;;;;;0.68;0.50;;;-1.50;85.70;;;;;;6073042;23;20537;-81
2022/11/20 00:13:38;;;;;;;1.45;0.70;;;-1.50;85.80;;;;;;6090589;23;20017;-81
2022/11/20 00:16:07;;;;;;;0.93;0.60;;;-1.60;85.80;;;;;;6107048;23;20009;-84
2022/11/20 00:18:33;;;;;;;1.42;0.65;;;-1.50;85.90;;;;;;6107474;23;20453;-81
2022/11/20 00:21:05;;;;;;;1.73;0.70;;;-1.50;85.90;;;;;;6131406;23;20064;-81
2022/11/20 00:23:31;;;;;;;;;;;-1.50;86.00;;;;;;6143544;23;20387;-81
2022/11/20 00:26:01;;;;;;;0.75;0.50;;;-1.50;86.00;;;;;;6190657;23;19938;-81
2022/11/20 00:28:26;;;;;;;0.60;0.50;;;-1.50;85.90;;;;;;6166602;23;20039;-82
2022/11/20 00:30:52;;;;;;;1.15;0.60;;;-1.50;85.90;;;;;;6190815;23;20019;-82
2022/11/20 00:33:18;;;;;;;0.98;0.60;;;-1.50;85.90;;;;;;6163562;23;20516;-81
2022/11/20 00:35:43;;;;;;;1.55;0.80;;;-1.60;85.80;;;;;;6191077;23;20510;-81
2022/11/20 00:38:09;;;;;;;1.65;0.82;;;-1.60;85.90;;;;;;6197083;22;20053;-81
2022/11/20 00:40:35;;;;;;;0.77;0.57;;;-1.50;86.00;;;;;;6280345;22;20018;-82
2022/11/20 00:43:01;;;;;;;1.73;0.70;;;-1.50;86.00;;;;;;6281585;22;20011;-81
2022/11/20 00:45:27;;;;;;;1.30;0.80;;;-1.60;85.90;;;;;;6282785;22;20014;-81
2022/11/20 00:47:52;;;;;;;0.82;0.55;;;-1.50;85.90;;;;;;6283197;22;19999;-84
2022/11/20 00:50:18;;;;;;;1.00;0.50;;;-1.60;86.00;;;;;;6282876;22;19995;-81
2022/11/20 00:52:44;;;;;;;1.35;0.50;;;-1.60;86.10;;;;;;6282642;22;20027;-81
2022/11/20 00:55:10;;;;;;;0.82;0.43;;;-1.70;86.10;;;;;;6308714;22;19999;-84
2022/11/20 00:57:36;;;;;;;1.52;0.60;;;-1.60;86.20;;;;;;6283042;22;20335;-83
2022/11/20 01:00:01;;;;;;;1.10;0.60;;;-1.60;86.20;;;;;;6282955;22;20338;-81
2022/11/20 01:02:27;;;;;;;1.70;0.85;;;-1.70;86.10;;;;;;6279765;22;20003;-84
2022/11/20 01:04:53;;;;;;;1.05;0.50;;;-1.60;86.10;;;;;;6283381;22;20065;-83
2022/11/20 01:07:19;;;;;;;1.13;0.70;;;-1.70;86.10;;;;;;6282692;22;20034;-84
2022/11/20 01:09:45;;;;;;;1.10;0.70;;;-1.70;86.20;;;;;;6283180;22;19995;-83
2022/11/20 01:12:10;;;;;;;1.08;0.55;;;-1.80;86.30;;;;;;6282865;22;20002;-83
2022/11/20 01:14:36;;;;;;;1.30;0.60;;;-1.80;86.40;;;;;;6283418;22;20007;-83
2022/11/20 01:17:02;;;;;;;1.08;0.70;;;-1.80;86.40;;;;;;6282720;22;20858;-83
2022/11/20 01:19:28;;;;;;;0.65;0.50;;;-1.80;86.40;;;;;;6283375;22;20015;-82
2022/11/20 01:21:54;;;;;;;0.73;0.35;;;-1.80;86.40;;;;;;6282731;22;20015;-83
2022/11/20 01:24:22;;;;;;;1.00;0.57;;;-1.70;86.40;;;;;;6281975;22;20410;-83
2022/11/20 01:26:50;;;;;;;0.82;0.60;;;-1.70;86.40;;;;;;6282784;22;20011;-83
2022/11/20 01:29:21;;;;;;;1.25;0.57;;;-1.80;86.30;;;;;;6282915;22;20005;-83
2022/11/20 01:31:47;;;;;;;0.90;0.50;;;-1.80;86.30;;;;;;6283531;22;20094;-83
2022/11/20 01:34:16;;;;;;;1.90;0.70;;;-1.80;86.30;;;;;;6282650;22;20056;-83
2022/11/20 01:36:43;;;;;;;0.73;0.50;;;-1.90;86.30;;;;;;6283242;22;20014;-83
2022/11/20 01:39:15;;;;;;;1.70;0.88;;;-1.70;86.50;;;;;;6282821;22;20089;-83
2022/11/20 01:44:22;;;;;;;1.08;0.65;;;-1.80;86.40;;;;;;6311404;22;20018;-83
2022/11/20 01:47:09;;;;;;;1.27;0.60;;;-1.90;86.40;;;;;;6283798;22;20041;-83
2022/11/20 01:49:41;;;;;;;1.10;0.57;;;-1.70;86.50;;;;;;6283111;22;20591;-83
2022/11/20 01:52:17;;;;;;;1.27;0.70;;;-1.80;86.40;;;;;;6283271;22;19999;-83
2022/11/20 01:54:51;;;;;;;0.98;0.50;;;-1.90;86.40;;;;;;6283177;22;20007;-83
2022/11/20 01:57:18;;;;;;;0.77;0.50;;;-1.70;86.50;;;;;;6283241;22;20003;-83
2022/11/20 01:59:51;;;;;;;1.15;0.82;;;-1.80;86.40;;;;;;6282876;22;20056;-83
2022/11/20 02:02:18;;;;;;;1.02;0.70;;;-1.80;86.40;;;;;;6283811;22;20089;-83
2022/11/20 02:04:44;;;;;;;1.38;0.75;;;-1.80;86.40;;;;;;6282544;22;20010;-82
2022/11/20 02:07:11;;;;;;;1.05;0.60;;;-1.90;86.50;;;;;;6282681;22;20339;-82
2022/11/20 02:09:37;;;;;;;2.55;0.60;;;-1.90;86.50;;;;;;6283047;22;20519;-82
2022/11/20 02:12:04;;;;;;;1.30;0.70;;;-1.90;86.50;;;;;;6279248;22;20042;-82
2022/11/20 02:14:30;;;;;;;0.57;0.55;;;-1.90;86.50;;;;;;6282524;22;20011;-83
2022/11/20 02:16:56;;;;;;;1.63;0.95;;;-2.00;86.60;;;;;;6282696;22;20037;-83
2022/11/20 02:19:31;;;;;;;1.15;0.63;;;-2.00;86.70;;;;;;6282963;22;20042;-82
2022/11/20 02:22:11;;;;;;;0.47;0.40;;;-2.00;86.80;;;;;;6283039;22;20014;-82
2022/11/20 02:24:37;;;;;;;1.48;0.68;;;-2.00;86.80;;;;;;6308411;22;20011;-82
2022/11/20 02:27:09;;;;;;;1.48;0.77;;;-2.10;86.60;;;;;;6282460;22;20049;-83
2022/11/20 02:29:55;;;;;;;1.80;0.70;;;-2.10;86.70;;;;;;6283236;22;20371;-82
2022/11/20 02:32:28;;;;;;;1.27;0.50;;;-2.10;86.90;;;;;;6285786;22;20010;-83
2022/11/20 02:34:54;;;;;;;1.38;0.60;;;-2.10;86.90;;;;;;6282678;22;20007;-82
2022/11/20 02:37:21;;;;;;;1.20;0.73;;;-2.10;86.90;;;;;;6282881;22;19999;-82
2022/11/20 02:39:49;;;;;;;1.58;0.70;;;-2.10;86.90;;;;;;6282824;22;20003;-83
2022/11/20 02:42:15;;;;;;;1.05;0.50;;;-2.10;86.80;;;;;;6282507;22;20034;-82
2022/11/20 02:44:41;;;;;;;1.38;0.52;;;-2.20;86.80;;;;;;6308122;22;20025;-82
2022/11/20 02:47:07;;;;;;;1.75;0.73;;;-2.10;86.90;;;;;;6282868;22;20454;-82
2022/11/20 02:49:33;;;;;;;0.85;0.63;;;-2.20;86.90;;;;;;6283455;22;20051;-83
2022/11/20 02:51:59;;;;;;;2.10;0.70;;;-2.20;86.90;;;;;;6283215;22;20436;-83
2022/11/20 02:54:28;;;;;;;1.85;0.90;;;-2.20;86.90;;;;;;6282060;22;20064;-83
2022/11/20 02:56:54;;;;;;;1.23;0.60;;;-2.10;87.00;;;;;;6282438;22;19999;-82
2022/11/20 02:59:20;;;;;;;0.80;0.60;;;-2.30;87.00;;;;;;6274519;22;20110;-83
2022/11/20 03:01:46;;;;;;;0.90;0.55;;;-2.30;87.00;;;;;;6282968;22;20421;-82
2022/11/20 03:04:12;;;;;;;1.45;0.70;;;-2.20;87.10;;;;;;6282245;22;20018;-81
2022/11/20 03:06:38;;;;;;;1.60;0.70;;;-2.30;87.00;;;;;;6281021;22;20014;-83
2022/11/20 03:09:04;;;;;;;0.98;0.60;;;-2.30;87.00;;;;;;6283315;22;20010;-82
2022/11/20 03:11:33;;;;;;;1.17;0.70;;;-2.30;87.00;;;;;;6283179;22;20429;-82
2022/11/20 03:14:03;;;;;;;0.73;0.52;;;-2.20;87.10;;;;;;6282509;22;20026;-81
2022/11/20 03:16:30;;;;;;;0.98;0.60;;;-2.30;87.10;;;;;;6278868;22;20026;-82
2022/11/20 03:18:56;;;;;;;0.90;0.55;;;-2.30;87.00;;;;;;6281724;22;20011;-81
2022/11/20 03:21:22;;;;;;;1.52;0.80;;;-2.30;87.00;;;;;;6278247;22;20067;-82
2022/11/20 03:23:48;;;;;;;1.20;0.60;;;-2.30;87.00;;;;;;6282605;22;20513;-83
2022/11/20 03:26:18;;;;;;;1.05;0.60;;;-2.30;87.00;;;;;;6283521;22;20086;-81
2022/11/20 03:28:53;;;;;;;0.85;0.63;;;-2.30;87.00;;;;;;6284600;22;20022;-82
2022/11/20 03:31:24;;;;;;;0.88;0.63;;;-2.40;87.00;;;;;;6283599;22;20006;-82
2022/11/20 03:33:50;;;;;;;1.17;0.70;;;-2.40;87.10;;;;;;6284370;22;20030;-81
2022/11/20 03:36:18;;;;;;;1.08;0.50;;;-2.40;87.10;;;;;;6283385;22;20251;-82
2022/11/20 03:38:45;;;;;;;1.38;0.65;;;-2.40;87.20;;;;;;6283784;22;20003;-81
2022/11/20 03:41:14;;;;;;;0.77;0.52;;;-2.40;87.20;;;;;;6284253;22;20009;-81
2022/11/20 03:43:41;;;;;;;0.88;0.50;;;-2.50;87.30;;;;;;6283950;22;20450;-80
2022/11/20 03:46:07;;;;;;;0.90;0.60;;;-2.50;87.30;;;;;;6283362;22;19995;-80
2022/11/20 03:48:34;;;;;;;1.73;0.80;;;-2.50;87.30;;;;;;6283494;22;20022;-80
2022/11/20 03:51:09;;;;;;;1.45;0.60;;;-2.40;87.40;;;;;;6282507;22;20010;-81
2022/11/20 03:53:35;;;;;;;0.90;0.50;;;-2.50;87.40;;;;;;6282443;22;20056;-80
2022/11/20 08:00:39;;;;;;;1.05;0.50;;;-2.60;87.20;;;;;;6255489;22;20024;-81
2022/11/20 08:03:39;;;;;;;1.73;0.70;;;-2.50;87.20;;;;;;6178366;23;20063;-81
2022/11/20 08:07:04;;;;;;;1.30;0.50;;;-2.50;87.10;;;;;;6155153;23;20017;-81
2022/11/20 08:09:36;;;;;;;1.00;0.45;;;-2.40;87.00;;;;;;6103174;23;20018;-81
2022/11/20 08:15:51;;;;;;;1.45;0.57;;;-2.30;86.90;;;;;;5962116;23;20102;-81
2022/11/20 08:18:17;;;;;;;1.20;0.55;;;-2.20;86.80;;;;;;5949905;24;20362;-81
2022/11/20 08:20:43;;;;;;;2.10;0.60;;;-2.20;86.70;;;;;;5948873;24;20039;-81
2022/11/20 08:23:09;;;;;;;1.00;0.57;;;-2.10;86.70;;;;;;5949939;24;20013;-81
2022/11/20 08:25:37;;;;;;;1.17;0.60;;;-2.00;86.80;;;;;;5949338;24;20024;-81
2022/11/20 08:28:05;;;;;;;1.45;0.75;;;-2.00;86.70;;;;;;5947916;24;20117;-81
2022/11/20 08:30:32;;;;;;;0.75;0.50;;;-1.90;86.70;;;;;;5969477;23;20009;-79
2022/11/20 08:33:05;;;;;;;0.93;0.52;;;-1.90;86.60;;;;;;5986947;23;20352;-81
2022/11/20 08:35:35;;;;;;;0.68;0.50;;;-1.80;86.70;;;;;;6092774;23;20054;-78
2022/11/20 08:38:02;;;;;;;1.13;0.68;;;-1.70;86.60;;;;;;6114323;23;20011;-81
2022/11/20 08:40:27;;;;;;;0.90;0.50;;;-1.70;86.50;;;;;;6068004;23;20014;-81
2022/11/20 08:42:53;;;;;;;0.82;0.60;;;-1.60;86.50;;;;;;6081175;23;20081;-79
2022/11/20 08:45:19;;;;;;;1.13;0.60;;;-1.60;86.50;;;;;;6131672;23;20021;-81
2022/11/20 08:47:45;;;;;;;1.30;0.60;;;-1.50;86.50;;;;;;6156152;23;20002;-81
2022/11/20 08:50:13;;;;;;;0.52;0.43;;;-1.40;86.50;;;;;;6268149;22;20015;-80
2022/11/20 08:52:39;;;;;;;1.02;0.60;;;-1.40;86.40;;;;;;6334207;22;20010;-80
2022/11/20 08:55:06;;;;;;;1.27;0.50;;;-1.30;86.40;;;;;;6336901;22;20002;-80
2022/11/20 08:57:33;;;;;;;2.47;0.70;;;-1.20;86.40;;;;;;6332693;22;20002;-80
2022/11/20 08:59:59;;;;;;;0.90;0.50;;;-1.20;86.30;;;;;;6309583;22;20015;-80
2022/11/20 09:02:25;;;;;;;1.27;0.70;;;-1.10;86.30;;;;;;6309902;22;20061;-80
2022/11/20 09:04:50;;;;;;;1.77;0.63;;;-1.10;86.30;;;;;;6309539;22;20007;-80
2022/11/20 09:07:16;;;;;;;1.05;0.70;;;-1.00;86.30;;;;;;6335348;22;20080;-80
2022/11/20 09:09:42;;;;;;;1.70;0.77;;;-0.90;87.00;;;;;;6336887;22;20496;-81
2022/11/20 09:12:07;;;;;;;0.98;0.50;;;-0.70;86.50;;;;;;6308943;22;20052;-82
2022/11/20 09:14:33;;;;;;;1.17;0.65;;;-0.80;86.40;;;;;;6336627;22;20300;-83
2022/11/20 09:16:59;;;;;;;0.95;0.52;;;-0.60;86.40;;;;;;6308780;22;20308;-82
2022/11/20 09:19:25;;;;;;;0.80;0.60;;;-0.70;86.30;;;;;;6309251;22;20014;-81
2022/11/20 09:21:51;;;;;;;0.82;0.63;;;-0.60;86.30;;;;;;6308819;22;19995;-80
2022/11/20 09:24:18;;;;;;;0.85;0.63;;;-0.50;86.30;;;;;;6336266;22;20447;-81
2022/11/20 09:26:44;;;;;;;1.10;0.70;;;-0.50;86.20;;;;;;6283291;22;19994;-82
2022/11/20 09:29:09;;;;;;;1.38;0.73;;;-0.50;86.20;;;;;;6309114;22;19999;-82
2022/11/20 09:31:35;;;;;;;0.63;0.57;;;-0.40;86.20;;;;;;6283315;22;19999;-82
2022/11/20 09:34:01;;;;;;;1.27;0.80;;;-0.30;86.30;;;;;;6335920;22;20034;-82
2022/11/20 09:36:26;;;;;;;1.70;0.77;;;-0.30;86.20;;;;;;6334982;22;20092;-81
2022/11/20 09:38:52;;;;;;;1.30;0.60;;;-0.20;86.30;;;;;;6335067;22;20028;-82
2022/11/20 09:41:52;;;;;;;0.77;0.63;;;-0.20;86.30;;;;;;6335118;22;20038;-82
2022/11/20 09:44:37;;;;;;;0.90;0.57;;;-0.20;86.20;;;;;;6336604;22;20489;-82
2022/11/20 09:47:19;;;;;;;2.15;0.90;;;0.00;86.30;;;;;;6335176;22;20462;-82
2022/11/20 09:50:06;;;;;;;1.20;0.80;;;0.00;86.30;;;;;;6334378;22;20003;-81
2022/11/20 09:52:59;;;;;;;1.05;0.75;;;0.00;86.20;;;;;;6334708;22;20006;-81
2022/11/20 09:55:27;;;;;;;1.23;0.70;;;0.10;86.20;;;;;;6308811;22;20037;-81
2022/11/20 09:57:54;;;;;;;1.38;0.70;;;0.20;86.30;;;;;;6309685;22;20085;-81
2022/11/20 10:00:21;;;;;;;2.08;1.02;;;0.20;86.30;;;;;;6285162;22;20458;-82
2022/11/20 10:03:00;;;;;;;1.27;0.80;;;0.20;86.20;;;;;;6338712;22;20024;-81
2022/11/20 10:05:39;;;;;;;1.67;0.88;;;0.20;86.20;;;;;;6317374;22;20015;-81
2022/11/20 10:08:25;;;;;;;1.13;0.77;;;0.40;86.30;;;;;;6337623;22;20003;-81
2022/11/20 10:11:10;;;;;;;2.03;1.10;;;0.50;86.30;;;;;;6312933;22;20050;-81
2022/11/20 10:14:12;;;;;;;2.20;1.08;;;0.40;86.10;;;;;;6338583;22;20011;-81
2022/11/20 10:17:01;;;;;;;1.63;1.00;;;0.40;86.30;;;;;;6334342;22;20474;-81
2022/11/20 10:19:45;;;;;;;1.15;0.70;;;0.50;86.30;;;;;;6316120;22;20445;-81
2022/11/20 10:22:34;;;;;;;1.30;0.80;;;0.70;86.30;;;;;;6348243;22;20114;-80
2022/11/20 10:25:24;;;;;;;1.50;0.80;;;0.70;86.30;;;;;;6332882;22;20007;-81
2022/11/20 10:28:21;;;;;;;1.30;0.80;;;0.80;86.30;;;;;;6343516;22;20080;-81
2022/11/20 10:30:56;;;;;;;1.50;0.80;;;0.80;86.20;;;;;;6333172;22;20056;-81
2022/11/20 10:33:25;;;;;;;1.67;0.80;;;1.00;86.10;;;;;;6309329;22;20006;-82
2022/11/20 10:36:05;;;;;;;1.45;0.90;;;1.00;86.00;;;;;;6340589;22;20045;-81
2022/11/20 10:38:46;;;;;;;1.60;0.93;;;1.20;86.00;;;;;;6350724;22;20024;-81
2022/11/20 10:41:26;;;;;;;1.45;0.90;;;1.10;86.00;;;;;;6284666;22;20012;-81
2022/11/20 10:44:05;;;;;;;1.48;0.88;;;1.30;86.10;;;;;;6282509;22;20008;-83
2022/11/20 10:46:43;;;;;;;1.73;1.00;;;1.30;86.00;;;;;;6206726;23;20025;-80
2022/11/20 10:49:14;;;;;;;2.05;1.20;;;1.40;86.00;;;;;;6179757;23;20028;-81
2022/11/20 10:52:00;;;;;;;1.52;1.00;;;1.40;85.80;;;;;;6122905;23;20575;-81
2022/11/20 10:54:39;;;;;;;1.58;0.88;;;1.50;85.80;;;;;;6114835;23;20065;-82
2022/11/20 10:57:25;;;;;;;1.60;0.88;;;1.50;85.90;;;;;;6065633;23;19999;-81
2022/11/20 11:00:04;;;;;;;1.70;1.00;;;1.60;86.00;;;;;;6055148;23;20797;-81
2022/11/20 11:02:45;;;;;;;1.10;0.70;;;1.60;86.60;;;;;;6055170;23;20475;-82
2022/11/20 11:05:22;;;;;;;1.13;0.87;;;1.60;86.00;;;;;;6024712;23;20027;-81
2022/11/20 11:07:53;;;;;;;2.15;1.00;;;1.60;86.10;;;;;;5997076;23;20087;-81
2022/11/20 11:10:24;;;;;;;2.50;1.30;;;1.60;86.10;;;;;;6013628;23;20016;-80
2022/11/20 11:12:49;;;;;;;1.25;1.15;;;1.70;86.20;;;;;;6036948;23;20515;-81
2022/11/20 11:15:27;;;;;;;2.75;1.27;;;1.70;86.10;;;;;;6066461;23;20014;-80
2022/11/20 11:17:53;;;;;;;2.10;1.00;;;1.80;86.10;;;;;;6102924;23;20073;-80
2022/11/20 11:20:23;;;;;;;1.75;1.20;;;1.80;86.00;;;;;;6122197;23;20014;-80
2022/11/20 11:22:53;;;;;;;1.70;1.10;;;1.90;86.00;;;;;;6157817;23;20005;-80
2022/11/20 11:25:27;;;;;;;2.13;1.05;;;2.00;86.10;;;;;;6184289;23;20099;-80
2022/11/20 11:27:56;;;;;;;2.53;1.30;;;2.00;86.00;;;;;;6191157;23;20007;-80
2022/11/20 11:30:22;;;;;;;1.38;1.00;;;2.10;86.00;;;;;;6209976;22;20004;-80
2022/11/20 11:32:48;;;;;;;1.48;0.95;;;2.20;86.00;;;;;;6278145;22;20004;-80
2022/11/20 11:35:24;;;;;;;2.28;1.27;;;2.30;85.90;;;;;;6246913;22;20469;-80
2022/11/20 11:37:51;;;;;;;2.75;1.52;;;2.30;85.80;;;;;;6278271;22;20007;-80
2022/11/20 11:40:18;;;;;;;2.83;1.52;;;2.40;85.80;;;;;;6252218;22;20007;-80
2022/11/20 11:42:50;;;;;;;2.65;1.48;;;2.50;85.90;;;;;;6282227;22;20334;-80
2022/11/20 11:45:17;;;;;;;2.55;1.40;;;2.50;85.70;;;;;;6310276;22;20014;-80
2022/11/20 11:47:48;;;;;;;2.55;1.48;;;2.60;85.70;;;;;;6309050;22;19995;-80
2022/11/20 11:50:21;;;;;;;2.47;1.40;;;2.60;85.70;;;;;;6309800;22;20308;-80
2022/11/20 11:53:12;;;;;;;2.08;1.15;;;2.60;85.70;;;;;;6335539;22;20632;-80
2022/11/20 11:55:46;;;;;;;1.95;1.35;;;2.60;85.80;;;;;;6335291;22;20006;-80
2022/11/20 11:58:37;;;;;;;2.13;1.20;;;2.60;85.90;;;;;;6336228;22;20342;-80
2022/11/20 12:01:24;;;;;;;1.95;1.17;;;2.60;86.00;;;;;;6335017;22;20011;-80
2022/11/20 12:04:24;;;;;;;1.92;1.30;;;2.60;86.10;;;;;;6336051;22;20014;-80
2022/11/20 12:07:11;;;;;;;2.55;1.38;;;2.70;86.80;;;;;;6313239;22;20007;-79
2022/11/20 12:09:45;;;;;;;1.88;1.02;;;2.70;86.20;;;;;;6309228;22;20021;-79
2022/11/20 12:12:24;;;;;;;2.22;1.17;;;2.70;86.20;;;;;;6335344;22;20002;-79
2022/11/20 12:14:54;;;;;;;2.30;1.20;;;2.60;86.30;;;;;;6335149;22;20005;-80
2022/11/20 12:17:19;;;;;;;2.83;1.25;;;2.60;86.40;;;;;;6335954;22;20082;-79
2022/11/20 12:19:45;;;;;;;2.40;1.13;;;2.70;86.50;;;;;;6308580;22;20205;-80
2022/11/20 12:22:40;;;;;;;2.13;1.08;;;2.70;86.50;;;;;;6335136;22;20427;-79
2022/11/20 12:25:22;;;;;;;1.60;1.20;;;2.80;86.60;;;;;;6336474;22;20393;-79
2022/11/20 12:28:03;;;;;;;2.63;1.55;;;3.00;86.70;;;;;;6309930;22;20011;-79
2022/11/20 12:30:33;;;;;;;3.38;1.40;;;2.90;86.50;;;;;;6336661;22;20021;-79
2022/11/20 12:33:26;;;;;;;2.10;1.20;;;2.90;86.50;;;;;;6336686;22;19998;-80
2022/11/20 12:36:19;;;;;;;2.20;1.45;;;2.90;86.40;;;;;;6308714;22;20002;-79
2022/11/20 12:39:11;;;;;;;1.27;1.17;;;3.10;86.40;;;;;;6335100;22;19999;-79
2022/11/20 12:45:18;;;;;;;2.30;1.40;;;3.10;86.40;;;;;;6336491;22;20015;-79
2022/11/20 12:48:17;;;;;;;2.40;1.20;;;3.10;86.90;;;;;;6335064;22;19999;-79
2022/11/20 12:51:09;;;;;;;1.83;1.20;;;3.20;86.40;;;;;;6335205;22;20003;-80
2022/11/20 12:53:58;;;;;;;2.75;1.63;;;3.20;86.40;;;;;;6334796;22;20029;-80
2022/11/20 12:56:58;;;;;;;2.08;1.38;;;3.20;86.40;;;;;;6312751;22;20007;-80
2022/11/20 12:59:52;;;;;;;2.22;1.15;;;3.30;86.50;;;;;;6336595;22;20002;-80
2022/11/20 13:02:50;;;;;;;1.88;1.10;;;3.30;86.50;;;;;;6335213;22;20446;-80
2022/11/20 13:05:49;;;;;;;2.45;1.50;;;3.20;86.60;;;;;;6334783;22;20014;-79
2022/11/20 13:08:22;;;;;;;2.28;1.20;;;3.20;86.70;;;;;;6335185;22;20002;-79
2022/11/20 13:11:07;;;;;;;1.40;0.80;;;3.30;86.80;;;;;;6335088;22;20021;-80
2022/11/20 13:13:59;;;;;;;2.35;1.42;;;3.20;86.90;;;;;;6334802;22;20415;-79
2022/11/20 13:17:00;;;;;;;2.75;1.40;;;3.20;87.00;;;;;;6334742;22;20423;-80
2022/11/20 13:19:28;;;;;;;1.55;1.10;;;3.20;87.10;;;;;;6334877;22;20334;-79
2022/11/20 13:21:54;;;;;;;2.65;1.65;;;3.40;87.10;;;;;;6309085;22;20081;-79
2022/11/20 13:24:29;;;;;;;3.20;1.60;;;3.20;87.10;;;;;;6335139;22;20069;-79
2022/11/20 13:27:30;;;;;;;2.97;1.60;;;3.20;87.20;;;;;;6337073;22;20059;-79
2022/11/20 13:30:15;;;;;;;2.70;1.52;;;3.20;87.40;;;;;;6336371;22;20385;-79
2022/11/20 13:33:02;;;;;;;3.63;1.60;;;3.30;87.40;;;;;;6334773;22;20077;-79
2022/11/20 13:35:33;;;;;;;2.40;1.48;;;3.20;87.40;;;;;;6335153;22;20071;-79
2022/11/20 13:38:04;;;;;;;2.67;1.42;;;3.20;87.40;;;;;;6308782;22;20006;-79
2022/11/20 13:40:30;;;;;;;2.17;1.30;;;3.30;87.50;;;;;;6336653;22;20010;-79
2022/11/20 13:43:10;;;;;;;3.00;1.55;;;3.30;87.50;;;;;;6336459;22;20007;-79
2022/11/20 13:45:36;;;;;;;2.00;1.10;;;3.30;87.60;;;;;;6336495;22;20037;-79
2022/11/20 13:48:18;;;;;;;4.15;1.85;;;3.30;87.50;;;;;;6332672;22;19995;-79
2022/11/20 13:50:57;;;;;;;4.10;1.70;;;3.30;87.60;;;;;;6336352;22;19999;-79
2022/11/20 13:53:45;;;;;;;2.53;1.50;;;3.30;87.70;;;;;;6334131;22;20022;-79
2022/11/20 13:56:23;;;;;;;3.70;1.70;;;3.30;87.60;;;;;;6336408;22;20025;-79
2022/11/20 13:59:11;;;;;;;3.40;1.67;;;3.40;87.60;;;;;;6282893;22;20003;-79
2022/11/20 14:01:37;;;;;;;2.95;1.65;;;3.30;87.70;;;;;;6337115;22;20021;-79
2022/11/20 14:04:09;;;;;;;4.15;2.00;;;3.30;87.60;;;;;;6306720;22;20006;-79
2022/11/20 14:06:43;;;;;;;2.65;1.30;;;3.30;87.70;;;;;;6307082;22;19995;-79
2022/11/20 14:09:13;;;;;;;4.68;2.08;;;3.30;87.80;;;;;;6334269;22;19995;-79
2022/11/20 14:11:46;;;;;;;2.58;1.42;;;3.30;87.80;;;;;;6307938;22;20006;-79
2022/11/20 14:14:16;;;;;;;4.43;1.83;;;3.40;87.90;;;;;;6333998;22;20369;-79
2022/11/20 14:16:44;;;;;;;4.82;1.88;;;3.30;87.90;;;;;;6334048;22;19999;-79
2022/11/20 14:19:26;;;;;;;3.25;1.88;;;3.30;88.00;;;;;;6336010;22;20002;-79
2022/11/20 14:22:05;;;;;;;3.65;1.83;;;3.30;88.10;;;;;;6333391;22;20006;-79
2022/11/20 14:24:31;;;;;;;3.95;2.03;;;3.30;88.10;;;;;;6331091;22;20007;-78
2022/11/20 14:26:57;;;;;;;5.13;2.35;;;3.30;88.10;;;;;;6333499;22;20081;-79
2022/11/20 14:29:29;;;;;;;3.88;1.67;;;3.30;88.20;;;;;;6333199;22;20002;-79
2022/11/20 14:31:56;;;;;;;1.95;1.40;;;3.40;88.20;;;;;;6333207;22;19999;-79
2022/11/20 14:34:24;;;;;;;3.15;1.55;;;3.40;88.30;;;;;;6332491;22;20006;-79
2022/11/20 14:36:57;;;;;;;4.10;1.90;;;3.30;88.30;;;;;;6336382;22;20010;-79
2022/11/20 14:39:34;;;;;;;3.45;1.98;;;3.30;88.40;;;;;;6336259;22;20057;-79
2022/11/20 14:41:59;;;;;;;4.50;2.17;;;3.40;88.50;;;;;;6336716;22;20427;-79
2022/11/20 14:44:32;;;;;;;2.25;1.33;;;3.30;88.40;;;;;;6334215;22;20086;-79
2022/11/20 14:47:01;;;;;;;4.15;2.10;;;3.30;88.50;;;;;;6335277;22;20500;-79
2022/11/20 14:49:30;;;;;;;2.42;1.67;;;3.30;88.60;;;;;;6335157;22;19999;-79
2022/11/20 14:52:01;;;;;;;3.45;1.67;;;3.30;88.60;;;;;;6334287;22;20326;-80
2022/11/20 14:54:28;;;;;;;3.67;1.80;;;3.30;88.60;;;;;;6334574;22;20073;-79
2022/11/20 14:56:57;;;;;;;4.03;2.20;;;3.40;88.70;;;;;;6333921;22;20607;-80
2022/11/20 14:59:28;;;;;;;3.80;1.90;;;3.30;88.70;;;;;;6307489;22;20077;-80
2022/11/20 15:02:01;;;;;;;3.58;1.73;;;3.30;88.70;;;;;;6338382;22;20056;-80
2022/11/20 15:04:27;;;;;;;4.05;2.03;;;3.40;88.80;;;;;;6309556;22;20019;-80
2022/11/20 15:06:55;;;;;;;4.60;2.15;;;3.40;88.80;;;;;;6333601;22;19999;-80
2022/11/20 15:09:21;;;;;;;3.83;1.75;;;3.40;88.90;;;;;;6307030;22;20022;-80
2022/11/20 15:11:56;;;;;;;4.20;2.22;;;3.40;88.90;;;;;;6335264;22;20082;-80
2022/11/20 15:14:22;;;;;;;2.95;1.65;;;3.40;88.90;;;;;;6333659;22;19999;-80
2022/11/20 15:16:48;;;;;;;3.38;1.63;;;3.40;88.90;;;;;;6335361;22;20003;-80
2022/11/20 15:19:20;;;;;;;3.25;1.63;;;3.40;88.90;;;;;;6334172;22;20010;-80
2022/11/20 15:21:46;;;;;;;3.50;1.70;;;3.40;89.00;;;;;;6335368;22;20011;-80
2022/11/20 15:24:12;;;;;;;4.32;2.20;;;3.40;89.00;;;;;;6337918;22;20010;-80
2022/11/20 15:26:40;;;;;;;3.45;1.98;;;3.40;89.00;;;;;;6337607;22;20059;-80
2022/11/20 15:29:10;;;;;;;4.03;2.15;;;3.40;89.10;;;;;;6336244;22;20319;-80
2022/11/20 15:31:37;;;;;;;3.15;1.50;;;3.40;89.10;;;;;;6335608;22;20132;-80
2022/11/20 15:34:06;;;;;;;3.78;2.05;;;3.40;89.10;;;;;;6309071;22;20010;-80
2022/11/20 15:36:32;;;;;;;3.33;1.83;;;3.40;89.10;;;;;;6337936;22;20002;-80
2022/11/20 15:38:57;;;;;;;3.85;2.03;;;3.40;89.20;;;;;;6334454;22;20033;-81
2022/11/20 15:41:23;;;;;;;2.72;1.60;;;3.30;89.20;;;;;;6333380;22;20007;-81
2022/11/20 15:43:49;;;;;;;4.35;2.28;;;3.40;89.30;;;;;;6334757;22;20446;-81
2022/11/20 15:46:19;;;;;;;3.97;2.10;;;3.40;89.30;;;;;;6334393;22;20419;-80
2022/11/20 15:48:54;;;;;;;3.45;1.70;;;3.50;89.30;;;;;;6337725;22;20435;-82
2022/11/20 15:51:26;;;;;;;3.20;1.85;;;3.40;89.30;;;;;;6334874;22;19995;-82
2022/11/20 15:53:52;;;;;;;4.70;2.10;;;3.40;89.30;;;;;;6337575;22;20411;-82
2022/11/20 15:56:17;;;;;;;4.50;1.98;;;3.40;89.30;;;;;;6338102;22;20056;-82
2022/11/20 15:58:43;;;;;;;4.30;2.05;;;3.40;89.30;;;;;;6337459;22;20003;-82
2022/11/20 16:01:15;;;;;;;3.15;1.60;;;3.40;89.30;;;;;;6309467;22;20331;-81
2022/11/20 16:03:41;;;;;;;3.38;1.67;;;3.50;89.40;;;;;;6332538;22;20443;-81
2022/11/20 16:06:07;;;;;;;4.75;2.17;;;3.50;89.40;;;;;;6283796;22;20025;-81
2022/11/20 16:08:34;;;;;;;3.33;1.60;;;3.50;89.50;;;;;;6332925;22;19995;-81
2022/11/20 16:10:59;;;;;;;4.65;2.10;;;3.60;89.60;;;;;;6335304;22;20003;-80
2022/11/20 16:16:19;;;;;;;4.70;2.25;;;3.50;89.60;;;;;;6332660;22;20014;-80
2022/11/20 16:18:44;;;;;;;5.18;2.45;;;3.50;89.70;;;;;;6309289;22;20052;-79
2022/11/20 16:21:13;;;;;;;4.63;2.17;;;3.50;89.70;;;;;;6335947;22;20011;-80
2022/11/20 16:23:39;;;;;;;3.67;1.70;;;3.50;89.70;;;;;;6336815;22;20017;-80
2022/11/20 16:26:13;;;;;;;2.83;1.70;;;3.50;89.80;;;;;;6335481;22;19999;-80
2022/11/20 16:28:39;;;;;;;2.42;1.63;;;3.50;89.80;;;;;;6337818;22;19995;-80
2022/11/20 16:31:15;;;;;;;3.45;1.92;;;3.50;89.70;;;;;;6335418;22;20010;-79
2022/11/20 16:33:41;;;;;;;3.80;1.58;;;3.50;89.70;;;;;;6309446;22;20026;-80
2022/11/20 16:36:12;;;;;;;3.67;1.77;;;3.50;89.80;;;;;;6309971;22;20007;-80
2022/11/20 16:38:38;;;;;;;3.65;1.92;;;3.60;89.90;;;;;;6338660;22;20026;-79
2022/11/20 16:41:05;;;;;;;3.10;1.60;;;3.50;89.80;;;;;;6337972;22;19998;-79
2022/11/20 16:43:30;;;;;;;4.13;2.33;;;3.50;89.80;;;;;;6339483;22;20018;-79
2022/11/20 16:45:56;;;;;;;3.88;1.90;;;3.50;89.90;;;;;;6337788;22;19999;-80
2022/11/20 16:48:21;;;;;;;4.25;2.22;;;3.50;90.00;;;;;;6336142;22;20449;-79
2022/11/20 16:50:50;;;;;;;4.18;1.83;;;3.40;90.00;;;;;;6337852;22;20021;-79
2022/11/20 16:53:17;;;;;;;3.95;1.95;;;3.40;90.00;;;;;;6309822;22;20125;-80
2022/11/20 16:55:42;;;;;;;3.65;1.65;;;3.50;90.00;;;;;;6337943;22;20090;-79
2022/11/20 16:58:08;;;;;;;2.75;1.50;;;3.40;90.00;;;;;;6337305;22;20002;-79
2022/11/20 17:00:37;;;;;;;2.78;1.60;;;3.50;90.00;;;;;;6339695;22;20018;-80
2022/11/20 17:03:03;;;;;;;2.75;1.52;;;3.50;90.10;;;;;;6337878;22;19999;-80
2022/11/20 17:05:30;;;;;;;3.75;1.77;;;3.50;90.10;;;;;;6309786;22;20010;-80
2022/11/20 17:07:55;;;;;;;3.92;1.75;;;3.50;90.10;;;;;;6337671;22;19995;-80
2022/11/20 17:10:21;;;;;;;2.67;1.63;;;3.40;90.00;;;;;;6337977;22;20046;-79
2022/11/20 17:12:47;;;;;;;8.55;3.67;;;3.50;90.10;;;;;;6337823;22;20010;-79
2022/11/20 17:15:12;;;;;;;8.10;4.15;;;3.50;90.10;;;;;;6338521;22;20327;-79
2022/11/20 17:17:38;;;;;;;5.97;2.80;;;3.50;90.10;;;;;;6336075;22;20151;-79
2022/11/20 17:20:04;;;;;;;5.93;2.95;;;3.50;90.10;;;;;;6337669;22;20090;-80
2022/11/20 17:22:31;;;;;;;6.13;2.95;;;3.50;90.10;;;;;;6312190;22;20003;-79
2022/11/20 17:24:56;;;;;;;4.07;2.17;;;3.50;90.20;;;;;;6338371;22;20097;-79
2022/11/20 17:27:22;;;;;;;5.03;2.40;;;3.50;90.10;;;;;;6336385;22;19995;-79
2022/11/20 17:29:48;;;;;;;4.78;2.30;;;3.50;90.20;;;;;;6335988;22;20068;-80
2022/11/20 17:32:14;;;;;;;4.70;2.72;;;3.50;90.20;;;;;;6333280;22;20330;-79
2022/11/20 17:34:39;;;;;;;5.00;2.63;;;3.60;90.20;;;;;;6334508;22;20010;-79